Eastside, Louisiana
Current Conditions -  °F | °C
As of 11:53 PM on Saturday 22 Nov 2014 (Local Time) from KMLU Reporting Station
Overcast Overcast  
Wind Chill: 61°   Ceiling: 1700
Heat Index: 61°   Visibility: 10mi
Dew Point: 55°   Wind: 6mph
Humidity: 81%   Direction: 100°E
Pressure: 29.85"   Gusts: NA
Location:  32.1631°N, 92.1971°W
Report Text: KMLU 230553Z AUTO 10005KT 10SM OVC017 16/13 A2985 RMK AO2 RAE02 SLP109 P0000 60000 T01610128 10178 20161 402170128 58024
Loading
Personal Weather Stations






























Interactive Weather Map New forecast layout! Learn more

10-Day Weather Forecast

Advertisements
Track Severe Weather on mobile